Time;durP1;ratioP1;P1;durP2;ratioP2;P2;SDS_P1;SDS_P2;PMS_P1;PMS_P2;Temp;Humidity;BMP_temperature;BMP_pressure;BME280_temperature;BME280_humidity;BME280_pressure;Samples;Min_cycle;Max_cycle;Signal;HPM_P1;HPM_P2
2022/07/20 00:01:50;;;;;;;4.93;3.75;;;28.20;67.60;;;;;;5034438;28;20048;-24
2022/07/20 00:04:16;;;;;;;9.20;4.57;;;28.10;67.60;;;;;;5036533;28;20100;-24
2022/07/20 00:06:42;;;;;;;7.45;4.50;;;28.10;67.60;;;;;;5035708;28;20026;-24
2022/07/20 00:12:06;;;;;;;6.35;4.15;;;28.10;67.60;;;;;;5010783;28;20348;-24
2022/07/20 00:14:31;;;;;;;7.18;4.05;;;28.10;67.60;;;;;;5034171;28;20111;-24
2022/07/20 00:16:57;;;;;;;8.75;4.05;;;28.10;67.70;;;;;;5035311;28;20176;-24
2022/07/20 00:19:22;;;;;;;6.80;4.35;;;28.10;67.70;;;;;;5033378;28;20029;-24
2022/07/20 00:21:48;;;;;;;7.85;4.18;;;28.10;67.70;;;;;;5015569;28;20529;-24
2022/07/20 00:24:14;;;;;;;6.18;4.40;;;28.10;67.70;;;;;;5033385;28;20053;-24
2022/07/20 00:26:40;;;;;;;6.32;3.85;;;28.10;67.70;;;;;;5033384;28;20386;-24
2022/07/20 00:29:05;;;;;;;8.07;4.35;;;28.00;67.70;;;;;;5034043;28;20475;-24
2022/07/20 00:31:31;;;;;;;6.72;4.32;;;28.10;67.70;;;;;;5034609;28;20052;-24
2022/07/20 00:33:57;;;;;;;6.50;4.50;;;28.10;67.80;;;;;;5034116;28;20494;-24
2022/07/20 00:36:23;;;;;;;5.75;4.20;;;28.00;67.70;;;;;;5034391;28;20475;-24
2022/07/20 00:38:48;;;;;;;6.57;4.50;;;28.00;67.70;;;;;;5033704;28;20056;-24
2022/07/20 00:41:14;;;;;;;6.68;4.47;;;28.00;67.80;;;;;;5033530;28;20033;-24
2022/07/20 00:44:12;;;;;;;4.70;4.18;;;28.00;67.80;;;;;;5033044;28;20022;-24
2022/07/20 00:46:40;;;;;;;8.10;4.63;;;28.00;67.80;;;;;;4999820;28;20065;-24
2022/07/20 00:49:07;;;;;;;6.97;4.50;;;28.00;67.80;;;;;;5032898;28;20036;-24
2022/07/20 00:51:34;;;;;;;8.05;4.35;;;28.00;67.80;;;;;;5033239;28;20478;-24
2022/07/20 00:54:00;;;;;;;7.97;4.72;;;28.00;67.80;;;;;;5033873;28;20402;-24
2022/07/20 00:56:26;;;;;;;5.78;4.13;;;28.00;67.80;;;;;;5033333;28;20494;-24
2022/07/20 00:58:52;;;;;;;5.95;4.55;;;28.00;67.80;;;;;;5033301;28;20037;-25
2022/07/20 01:01:18;;;;;;;7.47;4.55;;;28.00;67.80;;;;;;5033742;28;20014;-24
2022/07/20 01:03:44;;;;;;;10.73;4.30;;;27.90;67.70;;;;;;5033556;28;20022;-24
2022/07/20 01:06:11;;;;;;;7.70;4.70;;;27.90;67.70;;;;;;5032983;28;20018;-24
2022/07/20 01:08:36;;;;;;;6.55;4.82;;;28.00;67.80;;;;;;5032245;28;20028;-25
2022/07/20 01:11:03;;;;;;;6.13;4.47;;;27.90;67.80;;;;;;5032674;28;20030;-25
2022/07/20 01:13:29;;;;;;;7.75;4.63;;;27.90;67.80;;;;;;5032852;28;20061;-25
2022/07/20 01:15:55;;;;;;;6.47;4.50;;;28.00;67.90;;;;;;5032460;28;20060;-25
2022/07/20 01:18:20;;;;;;;5.45;4.70;;;27.90;67.80;;;;;;5031894;28;20470;-25
2022/07/20 01:20:49;;;;;;;5.85;4.45;;;27.90;67.80;;;;;;5032294;28;20029;-25
2022/07/20 01:23:16;;;;;;;6.88;4.40;;;27.90;67.80;;;;;;5032405;28;20144;-24
2022/07/20 01:25:42;;;;;;;6.20;4.78;;;28.00;68.70;;;;;;5032309;28;20026;-24
2022/07/20 01:28:10;;;;;;;5.35;4.47;;;27.90;67.90;;;;;;5032229;28;20414;-25
2022/07/20 01:30:36;;;;;;;7.32;4.57;;;27.90;67.90;;;;;;5032085;28;20025;-25
2022/07/20 01:33:02;;;;;;;6.22;4.53;;;27.90;67.90;;;;;;5032108;28;20104;-25
2022/07/20 01:35:28;;;;;;;5.20;4.32;;;27.90;67.90;;;;;;5032320;28;20108;-25
2022/07/20 01:37:53;;;;;;;6.55;4.63;;;27.90;68.80;;;;;;5032210;28;20534;-25
2022/07/20 01:40:19;;;;;;;9.75;5.15;;;27.90;68.00;;;;;;5032330;28;20021;-24
2022/07/20 01:42:44;;;;;;;5.60;4.50;;;27.90;68.00;;;;;;5032920;28;20026;-24
2022/07/20 01:45:10;;;;;;;5.68;4.55;;;27.80;67.90;;;;;;5032958;28;20033;-24
2022/07/20 01:47:36;;;;;;;6.65;4.45;;;27.90;68.00;;;;;;5032391;28;20033;-24
2022/07/20 01:50:03;;;;;;;6.53;4.93;;;27.80;68.00;;;;;;5031671;28;20029;-24
2022/07/20 01:52:28;;;;;;;8.35;4.78;;;27.90;68.10;;;;;;5032619;28;20025;-24
2022/07/20 01:54:54;;;;;;;8.18;4.55;;;27.90;68.10;;;;;;5033451;28;20509;-24
2022/07/20 01:57:20;;;;;;;7.00;4.47;;;27.80;68.00;;;;;;5018935;28;20076;-24
2022/07/20 01:59:45;;;;;;;6.68;4.85;;;27.90;68.20;;;;;;5036863;28;20454;-24
2022/07/20 02:02:11;;;;;;;7.28;4.45;;;27.80;68.10;;;;;;5036994;28;20025;-24
2022/07/20 02:04:37;;;;;;;7.00;4.72;;;27.80;68.10;;;;;;5037108;28;20021;-24
2022/07/20 02:07:03;;;;;;;6.55;5.07;;;27.80;68.20;;;;;;5036157;28;20025;-24
2022/07/20 02:09:29;;;;;;;10.45;4.50;;;27.80;68.20;;;;;;5036044;28;20029;-25
2022/07/20 02:11:54;;;;;;;8.38;4.38;;;27.80;68.20;;;;;;5035814;28;20033;-25
2022/07/20 02:14:20;;;;;;;6.57;4.85;;;27.80;68.20;;;;;;5035622;28;20075;-25
2022/07/20 02:16:46;;;;;;;11.52;4.80;;;27.80;68.20;;;;;;5035834;28;20166;-24
2022/07/20 02:19:11;;;;;;;7.05;4.28;;;27.80;68.20;;;;;;5036111;28;20044;-24
2022/07/20 02:21:37;;;;;;;8.07;4.25;;;27.80;68.30;;;;;;5036405;28;20048;-24
2022/07/20 02:24:04;;;;;;;5.32;4.40;;;27.80;68.20;;;;;;5035994;28;20036;-25
2022/07/20 02:26:29;;;;;;;7.20;4.43;;;27.80;68.30;;;;;;5036394;28;20087;-25
2022/07/20 02:28:55;;;;;;;8.75;4.40;;;27.80;68.30;;;;;;5035596;28;20113;-24
2022/07/20 02:31:24;;;;;;;5.45;4.65;;;27.70;68.20;;;;;;5036343;28;20036;-24
2022/07/20 02:33:51;;;;;;;7.60;4.80;;;27.70;68.30;;;;;;5036100;28;20029;-24
2022/07/20 02:36:17;;;;;;;7.47;4.75;;;27.70;68.30;;;;;;5040965;28;20040;-24
2022/07/20 02:38:43;;;;;;;6.32;4.70;;;27.80;68.40;;;;;;5039607;28;20514;-24
2022/07/20 02:41:09;;;;;;;6.25;4.60;;;27.70;68.30;;;;;;5037077;28;20514;-24
2022/07/20 02:43:35;;;;;;;7.47;4.85;;;27.70;68.40;;;;;;5036538;28;20041;-25
2022/07/20 02:46:01;;;;;;;11.13;4.65;;;27.70;68.40;;;;;;5036564;28;20021;-25
2022/07/20 02:48:26;;;;;;;11.02;4.28;;;27.70;68.40;;;;;;5035713;28;20364;-25
2022/07/20 02:50:52;;;;;;;7.20;4.10;;;27.70;68.40;;;;;;5035104;28;20030;-25
2022/07/20 02:53:18;;;;;;;7.65;4.50;;;27.70;68.40;;;;;;5017288;28;20525;-25
2022/07/20 02:55:44;;;;;;;6.90;4.43;;;27.70;68.40;;;;;;5017253;28;20400;-25
2022/07/20 02:58:11;;;;;;;5.95;4.85;;;27.70;68.60;;;;;;5034539;28;20386;-25
2022/07/20 03:00:38;;;;;;;6.53;4.40;;;27.70;68.50;;;;;;5034649;28;20057;-25
2022/07/20 03:03:04;;;;;;;6.15;4.53;;;27.70;68.50;;;;;;5034705;28;20470;-24
2022/07/20 03:05:30;;;;;;;5.90;4.53;;;27.70;68.50;;;;;;5035075;28;20026;-25
2022/07/20 03:07:56;;;;;;;7.60;5.20;;;27.70;68.60;;;;;;5035000;28;20025;-25
2022/07/20 03:10:22;;;;;;;6.10;3.92;;;27.70;68.60;;;;;;5034720;28;20034;-24
2022/07/20 03:12:48;;;;;;;6.43;4.28;;;27.60;68.50;;;;;;5035014;28;20333;-25
2022/07/20 03:15:14;;;;;;;5.95;4.43;;;27.60;68.60;;;;;;5035212;28;20091;-24
2022/07/20 03:17:51;;;;;;;5.88;3.97;;;27.60;68.60;;;;;;5034869;28;20033;-25
2022/07/20 03:20:29;;;;;;;5.43;4.30;;;27.60;68.60;;;;;;5034668;28;20036;-25
2022/07/20 03:22:55;;;;;;;4.88;4.22;;;27.60;68.70;;;;;;5035062;28;20021;-25
2022/07/20 03:25:22;;;;;;;7.47;4.47;;;27.60;68.70;;;;;;5016979;28;20075;-24
2022/07/20 03:27:51;;;;;;;5.93;4.43;;;27.60;68.70;;;;;;5034511;28;20034;-24
2022/07/20 03:30:17;;;;;;;8.07;4.75;;;27.60;68.70;;;;;;5034736;28;20125;-25
2022/07/20 03:32:43;;;;;;;8.05;4.25;;;27.60;68.70;;;;;;5016835;28;20053;-25
2022/07/20 03:35:09;;;;;;;7.28;4.63;;;27.50;68.70;;;;;;5034754;28;20021;-25
2022/07/20 03:37:35;;;;;;;6.75;4.20;;;27.50;68.70;;;;;;5034250;28;20032;-25
2022/07/20 03:40:01;;;;;;;6.38;4.47;;;27.60;68.80;;;;;;5016159;28;20490;-24
2022/07/20 03:42:26;;;;;;;7.75;4.72;;;27.50;68.80;;;;;;5034554;28;20060;-24
2022/07/20 03:44:52;;;;;;;6.53;4.05;;;27.50;68.80;;;;;;5034164;28;20048;-25
2022/07/20 03:47:18;;;;;;;6.80;4.15;;;27.50;68.80;;;;;;5033933;28;20025;-25
2022/07/20 03:49:44;;;;;;;5.68;3.88;;;27.50;68.80;;;;;;5033692;28;20083;-25
2022/07/20 03:52:09;;;;;;;6.07;4.53;;;27.50;68.80;;;;;;5033797;28;20101;-25
2022/07/20 03:54:35;;;;;;;6.30;4.80;;;27.50;68.90;;;;;;5033921;28;20578;-24
2022/07/20 03:57:00;;;;;;;6.57;4.32;;;27.50;68.90;;;;;;5033937;28;20378;-25
2022/07/20 03:59:26;;;;;;;7.00;4.50;;;27.50;68.90;;;;;;5033211;28;20029;-25
2022/07/20 04:01:52;;;;;;;8.63;4.57;;;27.50;69.00;;;;;;5033561;28;20026;-25
2022/07/20 04:04:17;;;;;;;7.30;4.43;;;27.50;69.00;;;;;;5033707;28;20026;-25
2022/07/20 04:06:43;;;;;;;6.07;4.07;;;27.40;69.00;;;;;;5033464;28;20068;-25
2022/07/20 04:09:08;;;;;;;7.95;4.60;;;27.40;69.00;;;;;;5033039;28;20026;-25
2022/07/20 04:11:35;;;;;;;6.38;4.47;;;27.40;69.10;;;;;;5033307;28;20036;-25
2022/07/20 04:14:01;;;;;;;5.82;4.10;;;27.40;69.10;;;;;;5033170;28;20049;-25
2022/07/20 04:16:27;;;;;;;5.57;3.95;;;27.40;69.10;;;;;;5033202;28;20057;-25
2022/07/20 04:18:53;;;;;;;7.75;4.47;;;27.30;69.10;;;;;;5032189;28;20124;-25
2022/07/20 04:21:19;;;;;;;5.82;4.22;;;27.30;69.20;;;;;;5033172;28;20449;-25
2022/07/20 04:23:45;;;;;;;7.47;4.45;;;27.30;69.30;;;;;;5033045;28;20116;-24
2022/07/20 04:26:11;;;;;;;5.18;4.47;;;27.30;69.30;;;;;;5033149;28;20048;-24
2022/07/20 04:28:36;;;;;;;7.93;4.50;;;27.30;69.30;;;;;;5032885;28;20434;-24
2022/07/20 04:31:02;;;;;;;6.88;4.55;;;27.30;69.30;;;;;;5033400;28;20548;-24
2022/07/20 04:33:28;;;;;;;6.70;4.43;;;27.30;69.40;;;;;;5033901;28;20028;-24
2022/07/20 04:35:54;;;;;;;8.10;4.55;;;27.30;69.40;;;;;;5016019;28;20028;-24
2022/07/20 04:38:20;;;;;;;5.10;4.30;;;27.20;69.30;;;;;;5033069;28;20021;-24
2022/07/20 04:40:46;;;;;;;7.40;4.90;;;27.20;69.40;;;;;;5034335;28;20029;-25
2022/07/20 04:43:12;;;;;;;5.22;4.07;;;27.30;69.50;;;;;;5035564;28;20025;-24
2022/07/20 04:45:37;;;;;;;6.28;4.43;;;27.20;69.50;;;;;;5049789;28;20026;-24
2022/07/20 04:48:03;;;;;;;5.28;4.40;;;27.20;69.50;;;;;;5048733;28;20029;-24
2022/07/20 04:50:29;;;;;;;5.82;4.53;;;27.20;69.60;;;;;;5041282;28;20036;-25
2022/07/20 04:52:54;;;;;;;6.88;4.57;;;27.20;69.60;;;;;;5033077;28;20508;-24
2022/07/20 04:55:20;;;;;;;7.43;4.43;;;27.20;69.70;;;;;;5033017;28;20601;-25
2022/07/20 04:57:46;;;;;;;7.32;4.63;;;27.20;69.70;;;;;;5032974;28;20029;-25
2022/07/20 05:00:12;;;;;;;7.70;4.78;;;27.20;69.80;;;;;;5032529;28;20500;-25
2022/07/20 05:02:38;;;;;;;8.45;4.22;;;27.20;69.80;;;;;;5032651;28;20040;-25
2022/07/20 05:05:05;;;;;;;10.88;4.43;;;27.20;69.80;;;;;;5032653;28;20029;-25
2022/07/20 05:07:30;;;;;;;6.03;4.45;;;27.10;69.70;;;;;;5032497;28;20056;-25
2022/07/20 05:09:56;;;;;;;6.45;4.68;;;27.20;69.90;;;;;;5032291;28;20061;-24
2022/07/20 05:12:22;;;;;;;6.50;4.70;;;27.20;69.90;;;;;;5032496;28;20028;-25
2022/07/20 05:14:47;;;;;;;5.10;4.47;;;27.20;69.90;;;;;;5032380;28;20030;-24
2022/07/20 05:17:13;;;;;;;6.45;4.35;;;27.20;70.00;;;;;;5032157;28;20025;-25
2022/07/20 05:19:38;;;;;;;9.05;4.70;;;27.20;70.00;;;;;;5054601;22;20050;-27
2022/07/20 05:22:04;;;;;;;7.85;4.47;;;27.20;70.00;;;;;;5032088;28;20021;-27
2022/07/20 05:24:30;;;;;;;5.55;4.57;;;27.10;70.00;;;;;;5032121;28;20474;-27
2022/07/20 05:26:55;;;;;;;7.35;4.88;;;27.10;70.20;;;;;;5032127;28;20394;-27
2022/07/20 05:29:21;;;;;;;6.68;4.35;;;27.20;70.20;;;;;;5030935;28;20101;-27
2022/07/20 05:31:47;;;;;;;5.72;4.50;;;27.20;70.30;;;;;;5031944;28;20049;-27
2022/07/20 05:34:12;;;;;;;7.38;4.80;;;27.10;70.20;;;;;;5032072;28;20021;-27
2022/07/20 05:36:38;;;;;;;7.28;4.68;;;27.10;70.30;;;;;;5031868;28;20029;-27
2022/07/20 05:39:04;;;;;;;4.65;4.00;;;27.10;70.40;;;;;;5031615;28;20026;-27
2022/07/20 05:41:32;;;;;;;5.18;4.35;;;27.10;70.60;;;;;;5032066;28;20017;-27
2022/07/20 05:43:58;;;;;;;6.20;4.63;;;27.10;70.70;;;;;;5031879;28;20475;-27
2022/07/20 05:46:24;;;;;;;7.47;4.53;;;27.00;70.70;;;;;;5031915;28;20033;-27
2022/07/20 05:48:49;;;;;;;7.18;4.10;;;27.00;70.80;;;;;;5031599;28;20032;-27
2022/07/20 05:51:15;;;;;;;7.53;4.63;;;27.00;70.80;;;;;;5032272;28;20022;-27
2022/07/20 05:53:40;;;;;;;6.90;3.97;;;27.00;71.00;;;;;;5031862;28;20048;-27
2022/07/20 05:56:07;;;;;;;6.57;4.30;;;27.00;71.00;;;;;;5031856;28;20021;-27
2022/07/20 05:58:33;;;;;;;7.38;4.53;;;27.00;71.00;;;;;;5031471;28;20036;-27
2022/07/20 06:00:59;;;;;;;6.25;4.78;;;27.10;71.20;;;;;;5031698;28;20021;-27
2022/07/20 06:03:24;;;;;;;8.40;4.47;;;27.10;71.20;;;;;;5031730;28;20456;-27
2022/07/20 06:05:50;;;;;;;9.80;5.63;;;27.10;71.20;;;;;;5031559;28;20478;-27
2022/07/20 06:08:15;;;;;;;13.35;5.30;;;26.90;73.90;;;;;;5031398;28;20079;-27
2022/07/20 06:10:41;;;;;;;16.45;5.13;;;26.50;75.00;;;;;;5031826;28;20112;-27
2022/07/20 06:13:07;;;;;;;20.02;5.60;;;26.30;76.20;;;;;;5031651;28;20026;-27
2022/07/20 06:15:32;;;;;;;13.45;4.43;;;26.10;76.80;;;;;;5031600;28;20032;-28
2022/07/20 06:17:58;;;;;;;13.85;5.07;;;26.00;76.90;;;;;;5031739;28;20033;-27
2022/07/20 06:20:25;;;;;;;13.73;5.05;;;25.90;76.80;;;;;;5031307;28;20030;-27
2022/07/20 06:22:51;;;;;;;13.57;5.30;;;25.90;77.40;;;;;;5031530;28;20072;-27
2022/07/20 06:25:18;;;;;;;19.65;5.80;;;25.90;78.10;;;;;;5031560;28;20037;-27
2022/07/20 06:27:44;;;;;;;13.18;5.05;;;25.80;78.60;;;;;;5031347;28;20040;-27
2022/07/20 06:30:11;;;;;;;12.80;5.22;;;25.80;78.60;;;;;;5031306;28;20030;-27
2022/07/20 06:32:38;;;;;;;13.10;5.28;;;25.80;78.90;;;;;;5031424;28;20100;-27
2022/07/20 06:35:05;;;;;;;13.43;5.00;;;25.70;79.20;;;;;;5031313;28;20036;-26
2022/07/20 06:37:30;;;;;;;12.23;5.35;;;25.60;79.20;;;;;;5031393;28;20056;-26
2022/07/20 06:39:56;;;;;;;11.98;5.18;;;25.60;79.20;;;;;;5031035;28;20116;-26
2022/07/20 06:42:22;;;;;;;13.10;5.47;;;25.70;79.40;;;;;;5034185;28;20029;-26
2022/07/20 06:44:48;;;;;;;13.43;5.05;;;25.70;79.20;;;;;;5035040;28;20040;-26
2022/07/20 06:47:14;;;;;;;10.88;5.25;;;25.80;79.30;;;;;;5034947;28;20021;-26
2022/07/20 06:49:41;;;;;;;20.95;5.68;;;26.00;79.00;;;;;;5034494;28;20410;-27
2022/07/20 06:52:06;;;;;;;11.77;5.57;;;26.00;79.50;;;;;;5034905;28;20025;-26
2022/07/20 06:54:32;;;;;;;18.27;5.47;;;25.90;79.40;;;;;;5035048;28;20083;-26
2022/07/20 06:56:58;;;;;;;14.25;5.30;;;25.90;79.70;;;;;;5034768;28;20033;-26
2022/07/20 06:59:24;;;;;;;11.93;5.30;;;25.90;79.50;;;;;;5034364;28;20030;-26
2022/07/20 07:01:50;;;;;;;15.70;5.32;;;26.10;79.10;;;;;;5034780;28;20060;-26
2022/07/20 07:04:17;;;;;;;12.82;5.45;;;26.20;78.60;;;;;;5034582;28;20056;-26
2022/07/20 07:06:42;;;;;;;9.38;5.10;;;26.40;78.20;;;;;;5034606;28;20022;-26
2022/07/20 07:09:09;;;;;;;12.73;5.15;;;26.50;77.80;;;;;;5034417;28;20445;-26
2022/07/20 07:11:35;;;;;;;12.57;5.65;;;26.60;77.50;;;;;;5034558;28;20020;-26
2022/07/20 07:14:00;;;;;;;13.05;5.13;;;26.70;77.30;;;;;;5016752;28;20026;-26
2022/07/20 07:16:26;;;;;;;13.25;5.75;;;26.70;77.00;;;;;;5034507;28;20018;-26
2022/07/20 07:18:52;;;;;;;9.15;5.38;;;26.70;76.70;;;;;;5033845;28;20124;-26
2022/07/20 07:21:18;;;;;;;8.13;4.82;;;26.80;76.60;;;;;;5034357;28;20064;-27
2022/07/20 07:23:45;;;;;;;15.38;5.25;;;26.90;76.50;;;;;;5034297;28;20030;-26
2022/07/20 07:26:11;;;;;;;11.70;5.03;;;26.90;76.30;;;;;;5034203;28;20095;-26
2022/07/20 07:28:37;;;;;;;8.25;4.97;;;26.90;76.20;;;;;;5033986;28;20021;-26
2022/07/20 07:31:02;;;;;;;7.70;4.68;;;26.90;76.10;;;;;;5034660;28;20036;-26
2022/07/20 07:33:28;;;;;;;7.70;5.00;;;26.90;76.00;;;;;;5016284;28;20513;-26
2022/07/20 07:35:55;;;;;;;8.48;5.03;;;26.90;75.80;;;;;;5034075;28;20132;-26
2022/07/20 07:38:21;;;;;;;8.52;5.05;;;26.90;75.70;;;;;;5033755;28;20091;-26
2022/07/20 07:40:47;;;;;;;9.23;4.90;;;27.00;75.60;;;;;;5033879;28;20048;-26
2022/07/20 07:43:13;;;;;;;13.10;4.65;;;26.90;75.40;;;;;;5016629;28;20020;-26
2022/07/20 07:45:38;;;;;;;6.50;5.00;;;27.00;75.40;;;;;;5034005;28;20029;-26
2022/07/20 07:48:09;;;;;;;6.82;4.65;;;27.00;75.40;;;;;;5033632;28;20032;-26
2022/07/20 07:50:38;;;;;;;6.55;4.68;;;27.00;75.30;;;;;;5033839;28;20395;-26
2022/07/20 07:53:07;;;;;;;7.22;4.57;;;27.00;75.20;;;;;;5032734;28;20056;-26
2022/07/20 07:55:34;;;;;;;7.55;4.45;;;27.00;75.10;;;;;;5033711;28;20100;-26
2022/07/20 07:58:00;;;;;;;10.00;4.65;;;27.00;75.10;;;;;;5033482;28;20482;-26
2022/07/20 08:00:25;;;;;;;10.90;4.63;;;27.00;75.00;;;;;;5033250;28;20509;-26
2022/07/20 08:02:51;;;;;;;6.88;4.20;;;27.10;75.00;;;;;;5033543;28;20044;-26
2022/07/20 08:05:17;;;;;;;6.75;4.55;;;27.10;75.00;;;;;;5033574;28;20053;-26
2022/07/20 08:07:43;;;;;;;7.07;4.70;;;27.10;74.90;;;;;;5033390;28;20028;-26
2022/07/20 08:10:08;;;;;;;8.65;4.60;;;27.10;75.00;;;;;;5033218;28;20026;-26
2022/07/20 08:12:36;;;;;;;8.07;4.47;;;27.10;74.90;;;;;;5033484;28;20257;-26
2022/07/20 08:15:04;;;;;;;8.48;4.43;;;27.10;74.80;;;;;;5033212;28;20025;-26
2022/07/20 08:17:30;;;;;;;6.47;4.13;;;27.10;74.80;;;;;;5033273;28;20109;-26
2022/07/20 08:19:55;;;;;;;6.63;4.38;;;27.10;74.80;;;;;;5032848;28;20034;-26
2022/07/20 08:22:21;;;;;;;6.07;4.03;;;27.10;74.70;;;;;;5033159;28;20108;-26
2022/07/20 08:24:47;;;;;;;6.05;4.38;;;27.10;74.60;;;;;;5033066;28;20028;-26
2022/07/20 08:27:12;;;;;;;6.30;3.95;;;27.10;74.60;;;;;;5033380;28;20029;-26
2022/07/20 08:29:38;;;;;;;5.70;4.00;;;27.20;74.60;;;;;;5032620;28;20066;-26
2022/07/20 08:32:04;;;;;;;8.98;4.30;;;27.20;74.60;;;;;;5033133;28;20061;-26
2022/07/20 08:34:30;;;;;;;6.90;4.13;;;27.20;74.50;;;;;;5033094;28;20026;-26
2022/07/20 08:36:55;;;;;;;5.32;4.10;;;27.20;74.50;;;;;;5032906;28;20040;-26
2022/07/20 08:39:22;;;;;;;7.05;4.25;;;27.20;74.40;;;;;;5032460;28;20029;-26
2022/07/20 08:41:48;;;;;;;7.45;4.15;;;27.30;74.50;;;;;;5032916;28;20021;-26
2022/07/20 08:44:14;;;;;;;7.53;3.75;;;27.20;74.40;;;;;;5032665;28;20029;-26
2022/07/20 08:46:43;;;;;;;5.15;3.88;;;27.30;74.40;;;;;;5032770;28;20030;-26
2022/07/20 08:49:09;;;;;;;7.75;4.28;;;27.30;74.30;;;;;;5032391;28;20022;-26
2022/07/20 08:51:34;;;;;;;6.60;4.10;;;27.30;74.20;;;;;;5032609;28;20028;-26
2022/07/20 08:54:00;;;;;;;9.00;4.15;;;27.30;74.20;;;;;;5032565;28;20491;-26
2022/07/20 08:56:26;;;;;;;5.32;4.10;;;27.30;74.10;;;;;;5032600;28;20029;-26
2022/07/20 08:58:52;;;;;;;12.50;4.00;;;27.40;74.10;;;;;;5031908;28;20079;-26
2022/07/20 09:01:19;;;;;;;14.85;4.40;;;27.60;71.50;;;;;;5032299;28;20037;-27
2022/07/20 09:04:07;;;;;;;14.75;4.35;;;28.10;70.10;;;;;;5032268;28;20487;-27
2022/07/20 09:06:34;;;;;;;13.98;3.92;;;28.50;69.60;;;;;;5032472;28;20017;-27
2022/07/20 09:09:06;;;;;;;11.73;4.10;;;28.70;69.50;;;;;;5031968;28;20083;-27
2022/07/20 09:11:33;;;;;;;12.35;4.50;;;28.80;69.50;;;;;;5032332;28;20080;-27
2022/07/20 09:14:00;;;;;;;13.25;4.32;;;28.80;69.50;;;;;;5014563;28;20037;-27
2022/07/20 09:16:42;;;;;;;7.05;4.40;;;28.80;69.60;;;;;;5032315;28;20057;-27
2022/07/20 09:19:08;;;;;;;6.40;3.88;;;28.80;69.70;;;;;;5031756;28;20506;-27
2022/07/20 09:21:34;;;;;;;11.05;4.13;;;28.80;69.80;;;;;;5031958;28;20029;-27
2022/07/20 09:24:05;;;;;;;5.22;3.80;;;28.80;69.90;;;;;;5032110;28;20391;-27
2022/07/20 09:26:32;;;;;;;6.38;3.67;;;28.80;69.90;;;;;;5032126;28;20021;-27
2022/07/20 09:28:59;;;;;;;7.15;3.95;;;28.80;70.00;;;;;;5031795;28;20605;-27
2022/07/20 09:31:31;;;;;;;5.20;3.63;;;28.80;70.20;;;;;;5032104;28;20379;-27
2022/07/20 09:34:04;;;;;;;5.53;4.05;;;28.80;70.20;;;;;;5032079;28;20433;-27
2022/07/20 09:36:32;;;;;;;9.93;4.00;;;28.80;71.00;;;;;;5031967;28;20028;-27
2022/07/20 09:39:09;;;;;;;5.15;3.85;;;28.80;70.20;;;;;;5031596;28;20119;-27
2022/07/20 09:41:36;;;;;;;8.93;3.65;;;28.80;70.20;;;;;;5031947;28;20084;-27
2022/07/20 09:44:05;;;;;;;7.35;3.72;;;28.80;70.30;;;;;;5031966;28;20025;-27
2022/07/20 09:46:37;;;;;;;7.75;3.92;;;28.80;70.40;;;;;;5031842;28;20021;-27
2022/07/20 09:49:04;;;;;;;5.10;3.85;;;28.70;70.40;;;;;;5031690;28;20383;-27
2022/07/20 09:51:41;;;;;;;5.60;3.65;;;28.70;70.50;;;;;;5031795;28;20021;-27
2022/07/20 09:54:10;;;;;;;8.57;3.88;;;28.70;70.60;;;;;;5031890;28;20076;-27
2022/07/20 09:56:38;;;;;;;5.60;3.70;;;28.60;70.60;;;;;;5031833;28;20076;-27
2022/07/20 09:59:06;;;;;;;5.53;3.60;;;28.60;70.80;;;;;;5031295;28;20026;-27
2022/07/20 10:01:37;;;;;;;8.75;4.00;;;28.50;70.90;;;;;;5031793;28;20071;-27
2022/07/20 10:04:06;;;;;;;5.22;4.07;;;28.50;71.00;;;;;;5031767;28;20375;-27
2022/07/20 10:06:33;;;;;;;4.85;3.55;;;28.50;71.00;;;;;;5031693;28;20470;-27
2022/07/20 10:08:59;;;;;;;5.25;3.78;;;28.50;71.10;;;;;;5031348;28;20112;-27
2022/07/20 10:11:26;;;;;;;7.07;3.63;;;28.60;71.10;;;;;;5031688;28;20097;-27
2022/07/20 10:13:54;;;;;;;6.82;4.10;;;28.60;71.00;;;;;;5013937;28;20092;-27
2022/07/20 10:16:40;;;;;;;5.72;3.97;;;28.50;71.10;;;;;;5032974;28;20017;-27
2022/07/20 10:19:07;;;;;;;4.45;3.58;;;28.60;71.10;;;;;;5035079;28;20112;-27
2022/07/20 10:21:33;;;;;;;5.32;3.42;;;28.60;71.00;;;;;;5035479;28;20032;-27
2022/07/20 10:24:25;;;;;;;5.22;3.72;;;28.60;71.10;;;;;;5035365;28;20021;-27
2022/07/20 10:26:53;;;;;;;6.25;3.92;;;28.60;71.10;;;;;;5035376;28;20495;-27
2022/07/20 10:29:56;;;;;;;4.57;3.47;;;28.60;71.20;;;;;;5035102;28;20034;-27
2022/07/20 10:32:30;;;;;;;4.30;3.75;;;28.50;71.20;;;;;;5033452;28;20037;-27
2022/07/20 10:35:17;;;;;;;4.22;3.55;;;28.60;71.30;;;;;;5035379;28;20026;-26
2022/07/20 10:37:43;;;;;;;4.63;3.78;;;28.50;71.20;;;;;;5024274;28;20503;-27
2022/07/20 10:40:19;;;;;;;7.35;3.30;;;28.60;71.30;;;;;;5034872;28;20029;-27
2022/07/20 10:43:12;;;;;;;5.72;4.05;;;28.60;71.30;;;;;;5034988;28;20080;-27
2022/07/20 10:45:37;;;;;;;4.78;3.53;;;28.60;71.30;;;;;;5026925;28;20505;-27
2022/07/20 10:48:12;;;;;;;3.88;3.47;;;28.60;71.30;;;;;;5034774;28;20026;-27
2022/07/20 10:50:40;;;;;;;5.20;3.58;;;28.60;71.40;;;;;;5034953;28;20026;-27
2022/07/20 10:53:11;;;;;;;4.90;3.88;;;28.60;71.40;;;;;;5034928;28;20035;-27
2022/07/20 10:55:37;;;;;;;4.38;3.28;;;28.60;71.40;;;;;;5035122;28;20056;-27
2022/07/20 10:58:07;;;;;;;4.47;3.65;;;28.60;71.30;;;;;;5034701;28;20057;-27
2022/07/20 11:00:36;;;;;;;5.07;3.47;;;28.70;71.40;;;;;;5034693;28;20036;-26
2022/07/20 11:03:15;;;;;;;4.20;3.63;;;28.70;71.30;;;;;;5034755;28;20100;-27
2022/07/20 11:05:43;;;;;;;4.70;3.58;;;28.70;71.20;;;;;;5017518;28;20470;-27
2022/07/20 11:08:10;;;;;;;5.82;3.88;;;28.70;71.20;;;;;;5034755;28;20034;-27
2022/07/20 11:10:37;;;;;;;4.53;3.42;;;28.80;71.30;;;;;;5034494;28;20033;-27
2022/07/20 11:13:18;;;;;;;4.97;4.00;;;28.80;71.20;;;;;;5034642;28;20438;-27
2022/07/20 11:15:53;;;;;;;4.45;3.97;;;28.80;71.20;;;;;;5035034;28;20044;-26
2022/07/20 11:18:24;;;;;;;5.95;3.40;;;28.80;71.20;;;;;;5034448;28;20033;-27
2022/07/20 11:21:05;;;;;;;3.65;3.15;;;28.80;71.20;;;;;;5056943;22;20096;-25
2022/07/20 11:23:47;;;;;;;4.78;3.28;;;28.80;71.10;;;;;;5034570;28;20312;-25
2022/07/20 11:26:16;;;;;;;7.30;3.67;;;28.90;71.20;;;;;;5034391;28;20474;-25
2022/07/20 11:28:51;;;;;;;5.45;3.42;;;28.90;71.20;;;;;;5033952;28;20037;-24
2022/07/20 11:31:19;;;;;;;5.95;3.25;;;28.90;71.20;;;;;;5034364;28;20029;-25
2022/07/20 11:33:47;;;;;;;4.45;3.70;;;28.90;71.20;;;;;;5034243;28;20053;-25
2022/07/20 11:36:22;;;;;;;6.90;3.55;;;28.90;71.20;;;;;;5034160;28;20021;-25
2022/07/20 11:38:48;;;;;;;;;;;28.90;71.20;;;;;;5034292;28;20433;-24
2022/07/20 11:41:21;;;;;;;4.55;3.30;;;28.90;71.20;;;;;;5034001;28;19913;-25
2022/07/20 11:43:48;;;;;;;5.43;3.40;;;28.90;71.20;;;;;;5034023;28;20030;-25
2022/07/20 11:46:18;;;;;;;4.78;3.40;;;28.90;71.30;;;;;;5033882;28;20033;-25
2022/07/20 11:48:51;;;;;;;4.13;3.70;;;28.90;71.30;;;;;;5033561;28;20060;-25
2022/07/20 11:51:17;;;;;;;5.25;3.67;;;28.90;71.40;;;;;;5033918;28;20029;-25
2022/07/20 11:53:43;;;;;;;4.07;3.20;;;28.90;71.40;;;;;;5034208;28;20116;-25
2022/07/20 11:56:17;;;;;;;5.78;3.53;;;28.90;71.40;;;;;;5033806;28;20045;-25
2022/07/20 11:58:46;;;;;;;4.30;3.63;;;28.90;71.50;;;;;;5033414;28;20021;-25
2022/07/20 12:01:14;;;;;;;5.03;3.78;;;28.80;71.50;;;;;;5033671;28;20121;-25
2022/07/20 12:03:42;;;;;;;6.63;3.40;;;28.80;71.60;;;;;;5034000;28;20021;-25
2022/07/20 12:06:09;;;;;;;6.00;3.40;;;28.80;71.60;;;;;;5033814;28;20374;-25
2022/07/20 12:08:36;;;;;;;5.25;3.20;;;28.80;71.60;;;;;;5033329;28;20017;-25
2022/07/20 12:11:03;;;;;;;4.05;3.30;;;28.80;71.80;;;;;;5033333;28;20022;-25
2022/07/20 12:13:29;;;;;;;4.07;3.40;;;28.70;71.80;;;;;;5033445;28;20038;-25
2022/07/20 12:16:05;;;;;;;6.30;3.55;;;28.70;71.90;;;;;;5033374;28;20534;-25
2022/07/20 12:18:35;;;;;;;5.55;3.17;;;28.60;72.00;;;;;;5033097;28;20398;-25
2022/07/20 12:21:01;;;;;;;4.07;3.45;;;28.60;72.10;;;;;;5033096;28;20104;-25
2022/07/20 12:23:27;;;;;;;3.78;3.33;;;28.60;72.20;;;;;;5033647;28;20438;-25
2022/07/20 12:25:53;;;;;;;6.97;3.60;;;28.50;72.30;;;;;;5033254;28;20037;-24
2022/07/20 12:28:35;;;;;;;6.72;3.58;;;28.60;72.40;;;;;;5015400;28;20474;-24
2022/07/20 12:31:12;;;;;;;6.07;3.58;;;28.50;72.50;;;;;;5033075;28;20021;-25
2022/07/20 12:33:38;;;;;;;5.15;3.67;;;28.50;72.60;;;;;;5033023;28;20486;-25
2022/07/20 12:36:08;;;;;;;4.85;3.85;;;28.50;72.90;;;;;;5032886;28;20100;-25
2022/07/20 12:38:34;;;;;;;4.95;3.80;;;28.40;73.00;;;;;;5032197;28;20022;-25
2022/07/20 12:41:12;;;;;;;7.28;3.35;;;28.40;73.30;;;;;;5032688;28;20026;-25
2022/07/20 12:43:40;;;;;;;6.10;3.83;;;28.30;73.80;;;;;;5015121;28;20026;-25
2022/07/20 12:46:13;;;;;;;6.50;4.10;;;28.30;74.20;;;;;;5032928;28;20026;-25
2022/07/20 12:48:41;;;;;;;5.75;4.45;;;28.30;74.60;;;;;;5032367;28;20022;-25
2022/07/20 12:51:08;;;;;;;5.68;4.30;;;28.30;74.90;;;;;;5033530;28;20022;-24